ROMMA est une association bénévole à but non lucratif. Votre soutien est indispensable : ADHERER à ROMMA ou FAIRE un DON

Eygliers - (05, Hautes-Alpes)

Guillestrois (965 m)   Longitude: 6° 38' 04" E   Latitude: 44° 40' 37" N Station partenaire n°53
 

Détail journalier du     <<     >>

Température Precipitation Humidité Vent Dir Rafale Dir. rafale Ensol.
Heure (°C) (mm) (%) (km/h) (km/h) (min)
01:00 9.306115N44N0
02:00 8.606719N39N0
03:00 8.506821N42N0
04:00 8.806310N32N0
05:00 8.80634N26N0
06:00 9.10624N16N0
07:00 8.90636N16N5
08:00 9.90605SE26NE0
09:00 11.00577N24N20
10:00 12.10547NNE21NNE20
11:00 13.605013NE32NE35
12:00 14.804717NE34NNE0
13:00 16.104523NNE45NE5
14:00 15.504524NNE45NE0
15:00 15.204316NNE39NNE0
16:00 15.405010N34SE5
17:00 15.104815NNE34NNE25
18:00 14.305018NE35NE20
19:00 13.805113N26N0
20:00 13.705111N21N0
21:00
22:00
23:00
minuit

Graphique du 23-04-2019

 

Serveur OMMA